createdAt,value
2022-08-24T00:00:00.000Z,7.92
2022-08-24T00:15:00.000Z,8.13
2022-08-24T00:30:00.000Z,9.67
2022-08-24T00:45:00.000Z,9.31
2022-08-24T01:00:00.000Z,11.06
2022-08-24T01:15:00.000Z,10.46
2022-08-24T01:30:00.000Z,9.65
2022-08-24T01:45:00.000Z,9.47
2022-08-24T02:00:00.000Z,8.61
2022-08-24T02:15:00.000Z,10.05
2022-08-24T02:30:00.000Z,8.05
2022-08-24T02:45:00.000Z,8.82
2022-08-24T03:00:00.000Z,9.1
2022-08-24T03:15:00.000Z,10.51
2022-08-24T03:30:00.000Z,10.2
2022-08-24T03:45:00.000Z,10.68
2022-08-24T04:00:00.000Z,10.2
2022-08-24T04:15:00.000Z,10.74
2022-08-24T04:30:00.000Z,12.4
2022-08-24T04:45:00.000Z,13.13
2022-08-24T05:00:00.000Z,10.78
2022-08-24T05:15:00.000Z,11.16
2022-08-24T05:30:00.000Z,15.91
2022-08-24T05:45:00.000Z,14.4
2022-08-24T06:00:00.000Z,13.15
2022-08-24T06:15:00.000Z,12.32
2022-08-24T06:30:00.000Z,12.78
2022-08-24T06:45:00.000Z,17.05
2022-08-24T07:00:00.000Z,14.34
2022-08-24T07:15:00.000Z,13.49
2022-08-24T07:30:00.000Z,13.86
2022-08-24T07:45:00.000Z,13.38
2022-08-24T08:00:00.000Z,10.12
2022-08-24T08:15:00.000Z,8.91
2022-08-24T08:30:00.000Z,5.94
2022-08-24T08:45:00.000Z,5.13
2022-08-24T09:00:00.000Z,5.32
2022-08-24T09:15:00.000Z,4.86
2022-08-24T09:30:00.000Z,5.19
2022-08-24T09:45:00.000Z,5.52
2022-08-24T10:00:00.000Z,4.6
2022-08-24T10:15:00.000Z,4.68
2022-08-24T10:30:00.000Z,4.78
2022-08-24T10:45:00.000Z,4.33
2022-08-24T11:00:00.000Z,4.53
2022-08-24T11:15:00.000Z,4.38
2022-08-24T11:30:00.000Z,4.15
2022-08-24T11:45:00.000Z,4.18
2022-08-24T12:00:00.000Z,3.98
2022-08-24T12:15:00.000Z,4.14
2022-08-24T12:30:00.000Z,4.16
2022-08-24T12:45:00.000Z,4.57
2022-08-24T13:00:00.000Z,4.54
2022-08-24T13:15:00.000Z,4.29
2022-08-24T13:30:00.000Z,4.29
2022-08-24T13:45:00.000Z,4.33
2022-08-24T14:00:00.000Z,4.6
2022-08-24T14:15:00.000Z,4.45
2022-08-24T14:30:00.000Z,4.33
2022-08-24T14:45:00.000Z,4.4
2022-08-24T15:00:00.000Z,4.4
2022-08-24T15:15:00.000Z,4.65
2022-08-24T15:30:00.000Z,4.5
2022-08-24T15:45:00.000Z,4.24
2022-08-24T16:00:00.000Z,4.34
2022-08-24T16:15:00.000Z,4.4
2022-08-24T16:30:00.000Z,4.3
2022-08-24T16:45:00.000Z,4.77
2022-08-24T17:00:00.000Z,5.06
2022-08-24T17:15:00.000Z,4.78
2022-08-24T17:30:00.000Z,5.05
2022-08-24T17:45:00.000Z,5.88
2022-08-24T18:00:00.000Z,6.74
2022-08-24T18:15:00.000Z,7.42
2022-08-24T18:30:00.000Z,7.85
2022-08-24T18:45:00.000Z,7.54
2022-08-24T19:00:00.000Z,7.09
2022-08-24T19:15:00.000Z,6.94
2022-08-24T19:30:00.000Z,7.08
2022-08-24T19:45:00.000Z,7.09
2022-08-24T20:00:00.000Z,7.12
2022-08-24T20:15:00.000Z,7.42
2022-08-24T20:30:00.000Z,7.21
2022-08-24T20:45:00.000Z,7.88
2022-08-24T21:00:00.000Z,9.51
2022-08-24T21:15:00.000Z,10.66
2022-08-24T21:30:00.000Z,9.87
2022-08-24T21:45:00.000Z,8.61
2022-08-24T22:00:00.000Z,8.82
2022-08-24T22:15:00.000Z,9.98
2022-08-24T22:30:00.000Z,9.91
2022-08-24T22:45:00.000Z,9.94
2022-08-24T23:00:00.000Z,9.69
2022-08-24T23:15:00.000Z,9.13
2022-08-24T23:30:00.000Z,9.53
2022-08-24T23:45:00.000Z,9.33
